John P. Pasentine — WDD6356 — position and weather

sailwx.info

Track history (hours):
 
Tides and Currents Weather Stations Pressure Air Temp Water Temp Dewpoint Dewpoint Depression Visibility Wind Speed Wind Dir Waves Ship Positions

John P. Pasentine

Owner: Florida Marine, LLC, Mandeville, LA. More information available from US FCC via Universal Licensing System and Coast Guard Vessel Documentation Center.

Last reported at 2017-Nov-15 01:34 UTC. Time now 2017-Nov-21 02:45 UTC.
Position N 29°49' W 091°50'.

Length 27 m; draft 3.2 m.

Type: Ship (hazmat cat C). MMSI: 367162830.

Date/timePositionNaut miles runAvg speedWind from/ knotsBaromVisibWave heightAir tempDewpointWater temp
2017-Nov-15 01:34N 29°49' W 091°50'4 3.8
2017-Nov-15 00:23N 29°51' W 091°55'2 5.1
2017-Nov-14 23:59N 29°51' W 091°57'2 4.9
2017-Nov-14 23:30N 29°50' W 091°60'3 5.1
2017-Nov-14 23:00N 29°49' W 092°02'3 5.2
2017-Nov-14 22:30N 29°48' W 092°05'3 5.4
2017-Nov-14 22:00N 29°47' W 092°08'2 4.8
2017-Nov-14 21:30N 29°47' W 092°11'0 0.6
2017-Nov-14 21:00N 29°47' W 092°11'0 0.0
2017-Nov-14 20:30N 29°47' W 092°11'0 0.0
2017-Nov-14 20:00N 29°47' W 092°11'0 0.0
2017-Nov-14 19:30N 29°47' W 092°11'1 2.8
2017-Nov-14 19:00N 29°47' W 092°13'1 2.6
2017-Nov-14 18:30N 29°48' W 092°14'2 3.2
2017-Nov-14 18:00N 29°48' W 092°16'2 4.8
2017-Nov-14 17:30N 29°50' W 092°18'3 3.5
2017-Nov-14 16:45N 29°51' W 092°21'2 4.4
2017-Nov-14 16:16N 29°52' W 092°22'51 3.5
2017-Nov-14 01:42N 30°06' W 093°19'0 0.0
2017-Nov-14 01:29N 30°06' W 093°19'0 0.4
2017-Nov-14 00:59N 30°06' W 093°19'2 3.8
2017-Nov-14 00:29N 30°04' W 093°20'7 4.1
2017-Nov-13 22:49N 30°04' W 093°28'2 4.9
2017-Nov-13 22:29N 30°04' W 093°30'  
2017-Nov-10 22:35N 29°50' W 092°19'1 5.8
2017-Nov-10 22:29N 29°50' W 092°18'2 4.9
2017-Nov-10 21:59N 29°49' W 092°16'3 6.4
2017-Nov-10 21:27N 29°47' W 092°13'1 1.7
2017-Nov-10 20:53N 29°47' W 092°12'0 0.0
2017-Nov-10 20:25N 29°47' W 092°12'0 0.7
2017-Nov-10 19:59N 29°47' W 092°11'2 4.7
2017-Nov-10 19:29N 29°47' W 092°09'3 6.2
2017-Nov-10 18:59N 29°48' W 092°05'3 6.1
2017-Nov-10 18:29N 29°49' W 092°02'3 6.1
2017-Nov-10 17:59N 29°50' W 091°59'  
2017-Nov-06 20:53N 29°50' W 091°59'2 5.5
2017-Nov-06 20:30N 29°49' W 092°01'55 2.7
2017-Nov-06 00:20N 29°56' W 093°05'1 4.4
2017-Nov-06 00:00N 29°56' W 093°06'2 4.6
2017-Nov-05 23:30N 29°56' W 093°09'1 2.8
2017-Nov-05 23:00N 29°57' W 093°10'2 3.7
2017-Nov-05 22:31N 29°58' W 093°12'2 4.0
2017-Nov-05 22:01N 29°60' W 093°13'2 3.5
2017-Nov-05 21:31N 30°01' W 093°14'2 3.9
2017-Nov-05 21:00N 30°03' W 093°16'2 4.0
2017-Nov-05 20:31N 30°05' W 093°17'2 3.4
2017-Nov-05 20:00N 30°06' W 093°18'0 0.9
2017-Nov-05 19:30N 30°06' W 093°18'2 4.1
2017-Nov-05 19:01N 30°05' W 093°20'2 4.8
2017-Nov-05 18:30N 30°04' W 093°23'3 5.4
2017-Nov-05 18:00N 30°04' W 093°26'3 5.4
2017-Nov-05 17:31N 30°04' W 093°29'3 5.4
2017-Nov-05 17:00N 30°04' W 093°32'  
Track history (hours):
 
Tides and Currents Weather Stations Pressure Air Temp Water Temp Dewpoint Dewpoint Depression Visibility Wind Speed Wind Dir Waves Ship Positions

John P. Pasentine

Owner: Florida Marine, LLC, Mandeville, LA. More information available from US FCC via Universal Licensing System and Coast Guard Vessel Documentation Center.

Last reported at 2017-Nov-15 01:34 UTC. Time now 2017-Nov-21 02:45 UTC.
Position N 29°49' W 091°50'.

Length 27 m; draft 3.2 m.

Type: Ship (hazmat cat C). MMSI: 367162830.

Date/timePositionNaut miles runAvg speedWind from/ knotsBaromVisibWave heightAir tempDewpointWater temp
2017-Nov-15 01:34N 29°49' W 091°50'4 3.8
2017-Nov-15 00:23N 29°51' W 091°55'2 5.1
2017-Nov-14 23:59N 29°51' W 091°57'2 4.9
2017-Nov-14 23:30N 29°50' W 091°60'3 5.1
2017-Nov-14 23:00N 29°49' W 092°02'3 5.2
2017-Nov-14 22:30N 29°48' W 092°05'3 5.4
2017-Nov-14 22:00N 29°47' W 092°08'2 4.8
2017-Nov-14 21:30N 29°47' W 092°11'0 0.6
2017-Nov-14 21:00N 29°47' W 092°11'0 0.0
2017-Nov-14 20:30N 29°47' W 092°11'0 0.0
2017-Nov-14 20:00N 29°47' W 092°11'0 0.0
2017-Nov-14 19:30N 29°47' W 092°11'1 2.8
2017-Nov-14 19:00N 29°47' W 092°13'1 2.6
2017-Nov-14 18:30N 29°48' W 092°14'2 3.2
2017-Nov-14 18:00N 29°48' W 092°16'2 4.8
2017-Nov-14 17:30N 29°50' W 092°18'3 3.5
2017-Nov-14 16:45N 29°51' W 092°21'2 4.4
2017-Nov-14 16:16N 29°52' W 092°22'51 3.5
2017-Nov-14 01:42N 30°06' W 093°19'0 0.0
2017-Nov-14 01:29N 30°06' W 093°19'0 0.4
2017-Nov-14 00:59N 30°06' W 093°19'2 3.8
2017-Nov-14 00:29N 30°04' W 093°20'7 4.1
2017-Nov-13 22:49N 30°04' W 093°28'2 4.9
2017-Nov-13 22:29N 30°04' W 093°30'  
2017-Nov-10 22:35N 29°50' W 092°19'1 5.8
2017-Nov-10 22:29N 29°50' W 092°18'2 4.9
2017-Nov-10 21:59N 29°49' W 092°16'3 6.4
2017-Nov-10 21:27N 29°47' W 092°13'1 1.7
2017-Nov-10 20:53N 29°47' W 092°12'0 0.0
2017-Nov-10 20:25N 29°47' W 092°12'0 0.7
2017-Nov-10 19:59N 29°47' W 092°11'2 4.7
2017-Nov-10 19:29N 29°47' W 092°09'3 6.2
2017-Nov-10 18:59N 29°48' W 092°05'3 6.1
2017-Nov-10 18:29N 29°49' W 092°02'3 6.1
2017-Nov-10 17:59N 29°50' W 091°59'  
2017-Nov-06 20:53N 29°50' W 091°59'2 5.5
2017-Nov-06 20:30N 29°49' W 092°01'55 2.7
2017-Nov-06 00:20N 29°56' W 093°05'1 4.4
2017-Nov-06 00:00N 29°56' W 093°06'2 4.6
2017-Nov-05 23:30N 29°56' W 093°09'1 2.8
2017-Nov-05 23:00N 29°57' W 093°10'2 3.7
2017-Nov-05 22:31N 29°58' W 093°12'2 4.0
2017-Nov-05 22:01N 29°60' W 093°13'2 3.5
2017-Nov-05 21:31N 30°01' W 093°14'2 3.9
2017-Nov-05 21:00N 30°03' W 093°16'2 4.0
2017-Nov-05 20:31N 30°05' W 093°17'2 3.4
2017-Nov-05 20:00N 30°06' W 093°18'0 0.9
2017-Nov-05 19:30N 30°06' W 093°18'2 4.1
2017-Nov-05 19:01N 30°05' W 093°20'2 4.8
2017-Nov-05 18:30N 30°04' W 093°23'3 5.4
2017-Nov-05 18:00N 30°04' W 093°26'3 5.4
2017-Nov-05 17:31N 30°04' W 093°29'3 5.4
2017-Nov-05 17:00N 30°04' W 093°32'  

Dump ship's entire track history